Time;durP1;ratioP1;P1;durP2;ratioP2;P2;SDS_P1;SDS_P2;PMS_P1;PMS_P2;Temp;Humidity;BMP_temperature;BMP_pressure;BME280_temperature;BME280_humidity;BME280_pressure;Samples;Min_cycle;Max_cycle;Signal;HPM_P1;HPM_P2
2022/12/22 03:25:55;;;;;;;1.65;1.10;;;;;;;;;;5047949;28;20271;-74
2022/12/22 03:28:40;;;;;;;1.50;1.08;;;;;;;;;;5050199;28;20177;-73
2022/12/22 03:31:26;;;;;;;2.33;1.38;;;;;;;;;;5050287;28;20158;-74
2022/12/22 03:34:11;;;;;;;2.25;1.20;;;;;;;;;;5049704;28;20179;-72
2022/12/22 03:36:57;;;;;;;3.47;1.15;;;;;;;;;;5048589;28;20043;-74
2022/12/22 03:39:42;;;;;;;1.60;1.02;;;;;;;;;;5055140;28;20025;-73
2022/12/22 03:48:35;;;;;;;2.53;1.30;;;;;;;;;;5058071;28;20040;-74
2022/12/22 03:51:20;;;;;;;2.60;1.40;;;;;;;;;;5052018;28;20674;-72
2022/12/22 03:54:06;;;;;;;1.67;1.08;;;;;;;;;;5051290;28;20124;-72
2022/12/22 03:56:51;;;;;;;1.27;1.00;;;;;;;;;;5058627;28;20036;-73
2022/12/22 03:59:36;;;;;;;1.55;1.15;;;;;;;;;;5054578;28;20025;-72
2022/12/22 04:02:21;;;;;;;2.20;1.20;;;;;;;;;;5048809;28;20475;-73
2022/12/22 04:05:07;;;;;;;1.55;1.15;;;;;;;;;;5053977;28;20029;-72
2022/12/22 04:07:52;;;;;;;2.20;1.15;;;;;;;;;;5057015;28;20029;-72
2022/12/22 04:13:41;;;;;;;1.00;0.90;;;;;;;;;;5055970;28;20020;-70
2022/12/22 04:16:27;;;;;;;1.63;0.98;;;;;;;;;;5051902;28;20041;-69
2022/12/22 04:19:12;;;;;;;3.08;1.20;;;;;;;;;;5048731;28;20037;-70
2022/12/22 04:21:57;;;;;;;2.22;1.30;;;;;;;;;;5053004;28;20119;-70
2022/12/22 04:24:42;;;;;;;1.77;1.05;;;;;;;;;;5054383;28;20036;-70
2022/12/22 04:27:28;;;;;;;4.15;1.25;;;;;;;;;;5057071;28;20048;-76
2022/12/22 04:30:13;;;;;;;2.60;1.10;;;;;;;;;;5053377;28;20025;-69
2022/12/22 04:32:59;;;;;;;1.27;1.00;;;;;;;;;;5055554;28;20044;-67
2022/12/22 04:35:44;;;;;;;2.08;1.10;;;;;;;;;;5056869;28;20028;-68
2022/12/22 04:38:29;;;;;;;1.25;0.82;;;;;;;;;;5048584;28;20482;-67
2022/12/22 04:41:14;;;;;;;2.75;1.10;;;;;;;;;;5045333;28;20039;-69
2022/12/22 04:44:00;;;;;;;2.10;1.42;;;;;;;;;;5057200;28;20742;-69
2022/12/22 04:46:45;;;;;;;2.78;0.90;;;;;;;;;;5060880;28;20036;-82
2022/12/22 04:49:30;;;;;;;5.10;1.60;;;;;;;;;;5055586;28;20043;-73
2022/12/22 04:52:16;;;;;;;3.95;1.25;;;;;;;;;;5053421;28;20032;-75
2022/12/22 04:55:01;;;;;;;2.17;1.30;;;;;;;;;;5056157;28;20037;-72
2022/12/22 04:57:46;;;;;;;2.25;1.25;;;;;;;;;;5055665;28;20063;-72
2022/12/22 05:00:31;;;;;;;1.48;1.00;;;;;;;;;;5045963;28;20036;-74
2022/12/22 05:03:16;;;;;;;2.75;1.15;;;;;;;;;;5048976;28;20033;-73
2022/12/22 05:06:02;;;;;;;3.47;1.40;;;;;;;;;;5044273;28;20126;-82
2022/12/22 05:08:47;;;;;;;2.08;0.77;;;;;;;;;;5053055;28;20119;-76
2022/12/22 05:11:32;;;;;;;2.60;1.08;;;;;;;;;;5051100;28;20101;-76
2022/12/22 05:14:17;;;;;;;5.13;1.30;;;;;;;;;;5046528;28;20093;-75
2022/12/22 05:17:03;;;;;;;7.10;1.52;;;;;;;;;;5060477;28;20099;-75
2022/12/22 05:19:48;;;;;;;3.42;1.23;;;;;;;;;;5056387;28;20039;-76
2022/12/22 05:22:33;;;;;;;4.20;1.25;;;;;;;;;;5054936;28;20032;-72
2022/12/22 05:25:19;;;;;;;1.50;1.00;;;;;;;;;;5050439;28;20043;-73
2022/12/22 05:28:04;;;;;;;2.25;1.42;;;;;;;;;;5053294;28;20024;-71
2022/12/22 05:30:49;;;;;;;1.70;1.17;;;;;;;;;;5048198;28;20025;-71
2022/12/22 05:33:34;;;;;;;2.10;1.27;;;;;;;;;;5053532;28;20037;-74
2022/12/22 05:36:20;;;;;;;4.03;1.08;;;;;;;;;;5039888;28;20082;-74
2022/12/22 05:39:05;;;;;;;5.00;1.40;;;;;;;;;;5055742;28;20036;-74
2022/12/22 05:41:50;;;;;;;4.53;2.03;;;;;;;;;;5052551;28;20035;-73
2022/12/22 05:44:35;;;;;;;4.50;1.40;;;;;;;;;;5053224;28;20163;-80
2022/12/22 05:47:21;;;;;;;2.97;1.42;;;;;;;;;;5047937;28;20127;-80
2022/12/22 05:50:06;;;;;;;4.50;1.63;;;;;;;;;;5063685;28;20391;-79
2022/12/22 05:52:53;;;;;;;2.92;1.55;;;;;;;;;;5050848;28;20523;-82
2022/12/22 05:55:38;;;;;;;3.13;1.38;;;;;;;;;;5044006;28;20138;-82
2022/12/22 05:58:23;;;;;;;3.33;1.10;;;;;;;;;;5058747;28;20064;-80
2022/12/22 06:01:08;;;;;;;5.15;1.20;;;;;;;;;;5058931;28;20028;-73
2022/12/22 06:03:54;;;;;;;2.88;1.25;;;;;;;;;;5043870;28;20040;-73
2022/12/22 06:06:39;;;;;;;2.55;1.00;;;;;;;;;;5051333;28;20136;-72
2022/12/22 06:09:24;;;;;;;4.68;1.40;;;;;;;;;;5047682;28;20044;-75
2022/12/22 06:12:09;;;;;;;3.28;1.48;;;;;;;;;;5054355;28;20086;-74
2022/12/22 06:14:54;;;;;;;2.13;0.98;;;;;;;;;;5041752;28;20024;-72
2022/12/22 06:17:40;;;;;;;3.47;1.88;;;;;;;;;;5052736;28;20471;-72
2022/12/22 06:20:25;;;;;;;5.25;1.52;;;;;;;;;;5044998;28;20047;-72
2022/12/22 06:23:10;;;;;;;3.05;1.20;;;;;;;;;;5057024;28;20024;-74
2022/12/22 06:25:56;;;;;;;3.63;1.50;;;;;;;;;;5057606;28;20040;-71
2022/12/22 06:28:41;;;;;;;4.88;1.60;;;;;;;;;;5052861;28;20046;-70
2022/12/22 06:31:27;;;;;;;5.20;1.60;;;;;;;;;;5043447;28;20131;-71
2022/12/22 06:34:12;;;;;;;9.02;2.08;;;;;;;;;;5050192;28;20036;-72
2022/12/22 06:36:57;;;;;;;6.80;1.42;;;;;;;;;;5045696;28;20082;-71
2022/12/22 06:39:42;;;;;;;5.10;1.42;;;;;;;;;;5052376;28;20028;-72
2022/12/22 06:45:31;;;;;;;5.32;1.77;;;;;;;;;;5047192;28;20067;-75
2022/12/22 06:48:17;;;;;;;7.20;1.95;;;;;;;;;;5062263;28;20072;-74
2022/12/22 06:51:02;;;;;;;6.88;1.90;;;;;;;;;;5049203;28;20110;-73
2022/12/22 06:53:47;;;;;;;8.45;1.90;;;;;;;;;;5067254;28;20028;-74
2022/12/22 06:56:33;;;;;;;3.40;1.92;;;;;;;;;;5050340;28;20036;-75
2022/12/22 06:59:18;;;;;;;6.75;1.85;;;;;;;;;;5051565;28;20032;-74
2022/12/22 07:02:03;;;;;;;8.95;1.98;;;;;;;;;;5063020;28;20028;-73
2022/12/22 07:04:48;;;;;;;9.38;2.60;;;;;;;;;;5056612;28;20032;-74
2022/12/22 07:07:33;;;;;;;8.18;2.35;;;;;;;;;;5052525;28;20382;-74
2022/12/22 07:10:56;;;;;;;9.00;1.67;;;;;;;;;;5058517;28;20111;-74
2022/12/22 07:13:33;;;;;;;5.45;2.38;;;;;;;;;;5055676;28;20029;-69
2022/12/22 07:16:19;;;;;;;7.63;2.33;;;;;;;;;;5049397;28;20032;-73
2022/12/22 07:19:04;;;;;;;9.02;2.22;;;;;;;;;;5055022;28;20024;-74
2022/12/22 07:21:50;;;;;;;7.88;1.80;;;;;;;;;;5053381;28;20033;-74
2022/12/22 07:24:35;;;;;;;9.07;1.92;;;;;;;;;;5056285;28;20029;-76
2022/12/22 07:27:20;;;;;;;6.45;2.63;;;;;;;;;;5068291;28;20040;-73
2022/12/22 07:30:06;;;;;;;8.23;2.20;;;;;;;;;;5058261;28;20031;-75
2022/12/22 07:32:51;;;;;;;9.32;1.70;;;;;;;;;;5057062;28;20086;-74
2022/12/22 07:35:36;;;;;;;7.05;2.42;;;;;;;;;;5062917;28;20048;-70
2022/12/22 07:38:21;;;;;;;7.65;2.55;;;;;;;;;;5058274;28;20097;-71
2022/12/22 07:44:11;;;;;;;10.13;2.40;;;;;;;;;;5058129;28;20028;-70
2022/12/22 07:46:56;;;;;;;5.45;2.00;;;;;;;;;;5064675;28;20028;-67
2022/12/22 07:52:45;;;;;;;5.50;2.05;;;;;;;;;;5054721;28;20028;-71
2022/12/22 07:55:34;;;;;;;10.15;2.03;;;;;;;;;;5056225;28;20051;-70
2022/12/22 07:58:19;;;;;;;6.22;2.45;;;;;;;;;;5071184;28;20063;-74
2022/12/22 08:01:04;;;;;;;12.82;3.13;;;;;;;;;;5053971;28;20033;-74
2022/12/22 08:03:50;;;;;;;9.77;2.70;;;;;;;;;;5059723;28;20024;-71
2022/12/22 08:06:35;;;;;;;14.10;2.22;;;;;;;;;;5059173;28;20028;-71
2022/12/22 08:09:21;;;;;;;8.02;2.08;;;;;;;;;;5051011;28;20040;-68
2022/12/22 08:12:07;;;;;;;9.73;3.20;;;;;;;;;;5049280;28;20067;-75
2022/12/22 08:14:52;;;;;;;10.18;2.72;;;;;;;;;;5054806;28;20078;-75
2022/12/22 08:17:37;;;;;;;7.57;2.88;;;;;;;;;;5057739;28;20025;-73
2022/12/22 08:20:23;;;;;;;5.10;1.60;;;;;;;;;;5053405;28;20045;-75
2022/12/22 08:23:08;;;;;;;7.28;1.98;;;;;;;;;;5057839;28;20032;-75
2022/12/22 08:26:02;;;;;;;9.77;2.70;;;;;;;;;;5046714;28;20035;-70
2022/12/22 08:28:49;;;;;;;7.03;1.88;;;;;;;;;;5056664;28;20040;-76
2022/12/22 08:31:34;;;;;;;5.40;2.28;;;;;;;;;;5067938;28;20028;-75
2022/12/22 08:34:20;;;;;;;7.22;2.85;;;;;;;;;;5053871;28;20384;-76
2022/12/22 08:37:06;;;;;;;10.80;2.63;;;;;;;;;;5055754;28;20115;-73
2022/12/22 08:39:55;;;;;;;4.07;1.60;;;;;;;;;;5056063;28;20036;-74
2022/12/22 08:42:40;;;;;;;8.45;2.20;;;;;;;;;;5056015;28;20371;-73
2022/12/22 08:45:25;;;;;;;10.38;2.78;;;;;;;;;;5066228;28;20105;-75
2022/12/22 08:48:11;;;;;;;8.82;1.98;;;;;;;;;;5061041;28;20048;-85
2022/12/22 08:50:56;;;;;;;7.80;2.30;;;;;;;;;;5059546;28;20653;-80
2022/12/22 08:53:41;;;;;;;8.95;2.00;;;;;;;;;;5057541;28;20021;-83
2022/12/22 08:56:26;;;;;;;9.52;2.50;;;;;;;;;;5059205;28;20073;-83
2022/12/22 08:59:12;;;;;;;4.43;1.98;;;;;;;;;;5059749;28;20035;-84
2022/12/22 09:01:57;;;;;;;10.35;2.78;;;;;;;;;;5058176;28;20054;-84
2022/12/22 09:04:42;;;;;;;8.45;2.40;;;;;;;;;;5060355;28;20553;-69
2022/12/22 09:07:27;;;;;;;10.63;2.50;;;;;;;;;;5057960;28;20170;-76
2022/12/22 09:10:13;;;;;;;7.97;2.15;;;;;;;;;;5057629;28;20081;-73
2022/12/22 09:12:58;;;;;;;6.75;2.08;;;;;;;;;;5058879;28;20032;-75
2022/12/22 09:15:43;;;;;;;8.45;2.22;;;;;;;;;;5058223;28;20126;-74
2022/12/22 09:18:29;;;;;;;5.05;1.75;;;;;;;;;;5071316;28;20031;-73
2022/12/22 09:21:14;;;;;;;8.55;1.90;;;;;;;;;;5059574;28;20032;-73
2022/12/22 09:23:59;;;;;;;6.28;2.10;;;;;;;;;;5059147;28;20033;-73
2022/12/22 09:26:45;;;;;;;9.43;1.95;;;;;;;;;;5053888;28;20021;-74
2022/12/22 09:29:30;;;;;;;9.52;2.17;;;;;;;;;;5049026;28;20058;-74
2022/12/22 09:32:15;;;;;;;7.47;1.88;;;;;;;;;;5054611;28;20036;-72
2022/12/22 09:35:01;;;;;;;7.75;2.75;;;;;;;;;;5059365;28;20048;-75
2022/12/22 09:37:47;;;;;;;7.75;2.75;;;;;;;;;;5045403;28;20037;-74
2022/12/22 09:40:32;;;;;;;9.60;2.58;;;;;;;;;;5047292;28;20032;-75
2022/12/22 09:43:20;;;;;;;16.75;3.60;;;;;;;;;;5054212;28;20044;-76
2022/12/22 09:46:10;;;;;;;5.90;1.88;;;;;;;;;;5054143;28;20082;-73
2022/12/22 09:48:56;;;;;;;9.07;2.13;;;;;;;;;;5054294;28;20115;-71
2022/12/22 09:52:01;;;;;;;9.32;2.70;;;;;;;;;;5049974;28;20037;-72
2022/12/22 09:54:46;;;;;;;10.02;2.10;;;;;;;;;;5051760;28;20628;-73
2022/12/22 09:57:32;;;;;;;8.05;2.30;;;;;;;;;;5062285;28;20040;-74
2022/12/22 10:00:18;;;;;;;7.72;3.08;;;;;;;;;;5055328;28;20078;-73
2022/12/22 10:03:23;;;;;;;8.82;2.20;;;;;;;;;;5061358;28;20090;-80
2022/12/22 10:06:20;;;;;;;10.13;2.53;;;;;;;;;;5065076;28;20035;-73
2022/12/22 10:09:24;;;;;;;9.88;2.58;;;;;;;;;;5059128;28;20036;-73
2022/12/22 10:12:13;;;;;;;8.77;2.15;;;;;;;;;;5052926;28;20041;-76
2022/12/22 10:14:59;;;;;;;7.45;2.53;;;;;;;;;;5062220;28;20183;-73
2022/12/22 10:17:44;;;;;;;8.75;2.03;;;;;;;;;;5059473;28;20028;-74
2022/12/22 10:20:30;;;;;;;8.18;2.15;;;;;;;;;;5054946;28;20039;-74
2022/12/22 10:23:15;;;;;;;7.57;1.92;;;;;;;;;;5050114;28;20646;-73
2022/12/22 10:26:11;;;;;;;3.05;1.60;;;;;;;;;;5054833;28;20359;-74
2022/12/22 10:28:58;;;;;;;3.83;1.90;;;;;;;;;;5054127;28;20029;-73
2022/12/22 10:32:00;;;;;;;7.40;1.77;;;;;;;;;;5060900;28;20040;-76
2022/12/22 10:35:00;;;;;;;7.00;3.25;;;;;;;;;;5052020;28;20029;-71
2022/12/22 10:37:45;;;;;;;6.68;1.77;;;;;;;;;;5055027;28;20107;-66
2022/12/22 10:40:32;;;;;;;4.38;1.85;;;;;;;;;;5058249;28;20048;-66
2022/12/22 10:43:25;;;;;;;7.57;1.88;;;;;;;;;;5077209;28;20442;-66
2022/12/22 10:46:10;;;;;;;6.60;1.52;;;;;;;;;;5054373;28;20028;-64
2022/12/22 10:49:08;;;;;;;7.43;1.58;;;;;;;;;;5057702;28;20028;-66
2022/12/22 10:52:10;;;;;;;6.57;1.85;;;;;;;;;;5060934;28;20055;-65
2022/12/22 10:55:14;;;;;;;3.75;1.83;;;;;;;;;;5053103;28;20047;-77
2022/12/22 10:58:25;;;;;;;5.28;1.58;;;;;;;;;;5050527;28;20072;-74
2022/12/22 11:01:11;;;;;;;4.20;1.80;;;;;;;;;;5054403;28;20052;-75
2022/12/22 11:03:57;;;;;;;7.25;1.83;;;;;;;;;;5049243;28;20536;-76
2022/12/22 11:06:42;;;;;;;7.20;1.40;;;;;;;;;;5049624;28;20025;-75
2022/12/22 11:09:27;;;;;;;5.70;1.63;;;;;;;;;;5052991;28;20047;-77
2022/12/22 11:12:26;;;;;;;6.07;2.03;;;;;;;;;;5058635;28;20028;-76
2022/12/22 11:15:11;;;;;;;4.70;1.90;;;;;;;;;;5053069;28;20166;-71
2022/12/22 11:18:00;;;;;;;5.78;1.70;;;;;;;;;;5053533;28;20063;-70
2022/12/22 11:20:50;;;;;;;5.47;1.33;;;;;;;;;;5049794;28;20046;-70
2022/12/22 11:23:49;;;;;;;8.32;1.98;;;;;;;;;;5054260;28;20064;-71
2022/12/22 11:26:50;;;;;;;4.68;1.75;;;;;;;;;;5056951;28;20099;-71
2022/12/22 11:30:00;;;;;;;5.38;1.30;;;;;;;;;;5051955;28;20039;-76
2022/12/22 11:32:56;;;;;;;5.85;1.13;;;;;;;;;;5058030;28;20129;-72
2022/12/22 11:35:41;;;;;;;6.70;2.40;;;;;;;;;;5063981;28;20124;-70
2022/12/22 11:38:30;;;;;;;4.50;1.42;;;;;;;;;;5065600;28;20033;-69
2022/12/22 11:41:24;;;;;;;5.28;1.73;;;;;;;;;;5052945;28;20027;-72
2022/12/22 11:44:22;;;;;;;4.38;1.30;;;;;;;;;;5055070;28;20926;-72
2022/12/22 11:47:12;;;;;;;3.92;1.10;;;;;;;;;;5062079;28;20060;-73
2022/12/22 11:50:19;;;;;;;3.10;1.15;;;;;;;;;;5053014;28;20039;-71
2022/12/22 11:53:14;;;;;;;3.53;1.30;;;;;;;;;;5052991;28;20033;-66
2022/12/22 11:56:18;;;;;;;4.35;1.45;;;;;;;;;;5051372;28;20048;-65
2022/12/22 11:59:14;;;;;;;6.70;1.38;;;;;;;;;;5046857;28;20626;-66
2022/12/22 12:02:20;;;;;;;3.67;1.08;;;;;;;;;;5053035;28;20047;-67
2022/12/22 12:05:34;;;;;;;3.83;1.75;;;;;;;;;;5054584;28;20036;-67
2022/12/22 12:08:19;;;;;;;6.25;1.30;;;;;;;;;;5023705;28;20613;-66
2022/12/22 12:11:05;;;;;;;3.53;1.20;;;;;;;;;;5054346;28;20101;-72
2022/12/22 12:13:56;;;;;;;3.53;1.13;;;;;;;;;;5062417;28;20035;-71
2022/12/22 12:16:52;;;;;;;3.75;1.38;;;;;;;;;;5055757;28;20089;-71
2022/12/22 12:19:41;;;;;;;4.65;1.35;;;;;;;;;;5055663;28;20036;-70
2022/12/22 12:22:43;;;;;;;4.57;1.23;;;;;;;;;;5056095;28;20036;-71
2022/12/22 12:25:36;;;;;;;4.45;1.65;;;;;;;;;;5052606;28;20132;-69
2022/12/22 12:28:40;;;;;;;5.45;1.20;;;;;;;;;;5055992;28;20086;-70
2022/12/22 12:31:29;;;;;;;3.80;1.13;;;;;;;;;;5060509;28;20044;-70
2022/12/22 12:34:15;;;;;;;4.90;2.80;;;;;;;;;;5055787;28;20127;-71
2022/12/22 12:37:05;;;;;;;2.30;1.25;;;;;;;;;;5055491;28;20384;-70
2022/12/22 12:39:54;;;;;;;1.80;1.20;;;;;;;;;;5055261;28;20032;-69
2022/12/22 12:42:41;;;;;;;2.80;1.02;;;;;;;;;;5056060;28;20136;-71
2022/12/22 12:45:32;;;;;;;7.15;2.10;;;;;;;;;;5056020;28;20020;-84
2022/12/22 12:48:23;;;;;;;5.82;1.52;;;;;;;;;;5054686;28;20454;-85
2022/12/22 12:51:31;;;;;;;4.35;1.17;;;;;;;;;;5051367;28;20035;-85
2022/12/22 12:54:21;;;;;;;2.75;1.10;;;;;;;;;;5054916;28;20094;-84
2022/12/22 12:57:26;;;;;;;2.63;1.55;;;;;;;;;;5046336;28;20225;-84
2022/12/22 13:00:30;;;;;;;3.60;1.10;;;;;;;;;;5059431;28;20920;-85
2022/12/22 13:03:28;;;;;;;4.20;1.00;;;;;;;;;;5053269;28;20056;-72
2022/12/22 13:06:32;;;;;;;3.15;1.00;;;;;;;;;;5058889;28;20025;-69
2022/12/22 13:09:17;;;;;;;3.05;1.00;;;;;;;;;;5059457;28;20062;-67
2022/12/22 13:12:21;;;;;;;2.60;1.05;;;;;;;;;;5055189;28;20044;-67
2022/12/22 13:15:25;;;;;;;2.58;0.85;;;;;;;;;;5060232;28;20032;-66
2022/12/22 13:18:30;;;;;;;2.90;0.98;;;;;;;;;;5054846;28;20162;-65
2022/12/22 13:21:15;;;;;;;2.38;1.20;;;;;;;;;;5055546;28;20024;-65
2022/12/22 13:24:02;;;;;;;1.10;0.90;;;;;;;;;;5054696;28;20064;-85
2022/12/22 13:26:49;;;;;;;2.97;1.05;;;;;;;;;;5063062;28;20438;-88
2022/12/22 13:29:40;;;;;;;3.15;1.90;;;;;;;;;;5054167;28;20039;-86
2022/12/22 13:32:32;;;;;;;1.98;1.15;;;;;;;;;;5047446;28;20039;-84
2022/12/22 13:35:17;;;;;;;2.65;1.15;;;;;;;;;;5053071;28;20059;-87
2022/12/22 13:38:02;;;;;;;3.05;1.20;;;;;;;;;;5049346;28;20038;-86
2022/12/22 13:40:48;;;;;;;2.88;0.98;;;;;;;;;;5055264;28;20028;-68
2022/12/22 13:43:34;;;;;;;3.33;1.40;;;;;;;;;;5055906;28;20028;-87
2022/12/22 13:46:19;;;;;;;2.75;1.52;;;;;;;;;;5055289;28;20043;-86
2022/12/22 13:49:07;;;;;;;4.57;1.40;;;;;;;;;;5057748;28;20093;-78
2022/12/22 13:51:52;;;;;;;2.72;1.58;;;;;;;;;;5056825;28;20029;-79
2022/12/22 13:54:39;;;;;;;1.80;1.05;;;;;;;;;;5054470;28;20040;-79
2022/12/22 13:57:24;;;;;;;1.65;0.73;;;;;;;;;;5048467;28;20040;-76
2022/12/22 14:00:17;;;;;;;2.60;1.02;;;;;;;;;;5045599;28;20759;-71
2022/12/22 14:03:04;;;;;;;3.08;1.27;;;;;;;;;;5054928;28;20267;-70
2022/12/22 14:05:49;;;;;;;2.33;0.90;;;;;;;;;;5056932;28;20753;-70
2022/12/22 14:08:34;;;;;;;4.38;1.20;;;;;;;;;;5052802;28;20101;-69
2022/12/22 14:11:20;;;;;;;3.65;1.20;;;;;;;;;;5048903;28;20032;-71
2022/12/22 14:14:06;;;;;;;4.15;1.63;;;;;;;;;;5053353;28;20119;-70
2022/12/22 14:16:53;;;;;;;4.60;1.50;;;;;;;;;;5058137;28;20032;-67
2022/12/22 14:19:39;;;;;;;3.20;1.20;;;;;;;;;;5053499;28;20047;-75
2022/12/22 14:22:37;;;;;;;3.75;1.38;;;;;;;;;;5064644;28;20024;-75
2022/12/22 14:25:29;;;;;;;2.88;1.35;;;;;;;;;;5047927;28;20040;-74
2022/12/22 14:28:14;;;;;;;7.15;2.05;;;;;;;;;;5053431;28;20036;-73
2022/12/22 14:31:01;;;;;;;6.47;1.38;;;;;;;;;;5051558;28;20021;-73
2022/12/22 14:33:54;;;;;;;3.97;1.50;;;;;;;;;;5055357;28;20382;-76
2022/12/22 14:36:44;;;;;;;5.47;1.80;;;;;;;;;;5054186;28;20036;-66
2022/12/22 14:39:30;;;;;;;6.43;2.75;;;;;;;;;;5052703;28;20039;-67
2022/12/22 14:42:17;;;;;;;4.28;1.67;;;;;;;;;;5055501;28;20027;-66
2022/12/22 14:45:02;;;;;;;5.88;1.63;;;;;;;;;;5054620;28;20416;-66
2022/12/22 14:47:48;;;;;;;7.30;2.28;;;;;;;;;;5048724;28;20554;-67
2022/12/22 14:50:33;;;;;;;7.95;2.50;;;;;;;;;;5046093;28;20452;-62
2022/12/22 14:53:24;;;;;;;7.75;1.98;;;;;;;;;;5054524;28;20032;-61
2022/12/22 14:56:10;;;;;;;5.45;2.55;;;;;;;;;;5054121;28;20032;-65
2022/12/22 14:59:09;;;;;;;8.00;2.10;;;;;;;;;;5062323;28;20123;-63
2022/12/22 15:01:55;;;;;;;10.95;3.05;;;;;;;;;;5043666;28;20029;-77
2022/12/22 15:04:40;;;;;;;6.85;2.15;;;;;;;;;;5045699;28;20396;-75
2022/12/22 15:07:26;;;;;;;8.48;2.28;;;;;;;;;;5052545;28;20040;-76
2022/12/22 15:10:11;;;;;;;9.02;2.60;;;;;;;;;;5057286;28;20076;-78
2022/12/22 15:12:57;;;;;;;8.60;2.45;;;;;;;;;;5052195;28;20119;-73
2022/12/22 15:15:42;;;;;;;6.60;2.13;;;;;;;;;;5061175;28;20061;-74
2022/12/22 15:18:28;;;;;;;7.85;1.98;;;;;;;;;;5046068;28;20062;-74
2022/12/22 15:21:14;;;;;;;8.38;2.40;;;;;;;;;;5038687;28;20071;-73
2022/12/22 15:24:00;;;;;;;9.05;2.60;;;;;;;;;;5045073;28;20036;-73
2022/12/22 15:26:45;;;;;;;6.68;2.10;;;;;;;;;;5059628;28;20383;-74
2022/12/22 15:29:30;;;;;;;10.75;2.97;;;;;;;;;;5042844;28;20048;-72
2022/12/22 15:32:16;;;;;;;9.85;2.28;;;;;;;;;;5043726;28;20048;-72
2022/12/22 15:35:02;;;;;;;8.68;2.33;;;;;;;;;;5050692;28;20032;-70
2022/12/22 15:37:47;;;;;;;3.83;1.80;;;;;;;;;;5046489;28;20376;-72
2022/12/22 15:40:32;;;;;;;5.72;1.83;;;;;;;;;;5054060;28;20086;-71
2022/12/22 15:43:18;;;;;;;6.57;2.33;;;;;;;;;;5052837;28;20033;-73
2022/12/22 15:46:04;;;;;;;7.00;2.28;;;;;;;;;;5058370;28;20529;-73
2022/12/22 15:48:49;;;;;;;9.50;2.30;;;;;;;;;;5048560;28;20130;-72
2022/12/22 15:51:34;;;;;;;7.13;1.83;;;;;;;;;;5049331;28;20056;-75
2022/12/22 15:54:20;;;;;;;8.95;2.75;;;;;;;;;;5056611;28;20128;-73
2022/12/22 15:57:08;;;;;;;10.32;3.20;;;;;;;;;;5057504;28;20025;-74
2022/12/22 15:59:53;;;;;;;7.18;2.20;;;;;;;;;;5059321;28;20032;-77
2022/12/22 16:02:38;;;;;;;6.22;2.92;;;;;;;;;;5056252;28;20036;-77
2022/12/22 16:05:23;;;;;;;5.72;2.22;;;;;;;;;;5054547;28;20043;-77
2022/12/22 16:08:12;;;;;;;7.63;2.38;;;;;;;;;;5052508;28;20042;-76
2022/12/22 16:10:57;;;;;;;7.32;2.50;;;;;;;;;;5053767;28;20033;-69
2022/12/22 16:13:43;;;;;;;6.88;2.03;;;;;;;;;;5055709;28;20051;-71
2022/12/22 16:16:28;;;;;;;10.57;3.40;;;;;;;;;;5054052;28;20575;-72
2022/12/22 16:19:15;;;;;;;9.80;2.20;;;;;;;;;;5049079;28;20117;-71
2022/12/22 16:22:00;;;;;;;6.55;2.05;;;;;;;;;;5058000;28;20498;-71
2022/12/22 16:24:46;;;;;;;8.20;2.33;;;;;;;;;;5049445;28;20113;-73
2022/12/22 16:27:33;;;;;;;13.30;2.72;;;;;;;;;;5053686;28;20020;-70
2022/12/22 16:30:21;;;;;;;12.60;3.22;;;;;;;;;;5063137;28;20178;-71
2022/12/22 16:33:08;;;;;;;6.38;1.80;;;;;;;;;;5056237;28;20040;-71
2022/12/22 16:35:53;;;;;;;7.63;2.90;;;;;;;;;;5048270;28;20112;-70
2022/12/22 16:38:38;;;;;;;10.07;3.13;;;;;;;;;;5054805;28;20050;-71
2022/12/22 16:41:24;;;;;;;12.50;2.95;;;;;;;;;;5055121;28;20497;-70
2022/12/22 16:44:12;;;;;;;9.57;2.50;;;;;;;;;;5056012;28;20032;-68
2022/12/22 16:46:57;;;;;;;8.88;2.70;;;;;;;;;;5060693;28;20024;-72
2022/12/22 16:49:43;;;;;;;9.82;2.60;;;;;;;;;;5051414;28;20025;-72
2022/12/22 16:52:39;;;;;;;11.95;4.30;;;;;;;;;;5049276;28;20024;-71
2022/12/22 16:55:24;;;;;;;10.07;2.65;;;;;;;;;;5049137;28;20036;-69
2022/12/22 16:58:10;;;;;;;12.65;2.50;;;;;;;;;;5052773;28;20036;-72
2022/12/22 17:00:55;;;;;;;9.00;2.65;;;;;;;;;;5046337;28;20535;-72
2022/12/22 17:03:41;;;;;;;11.45;2.97;;;;;;;;;;5057961;28;20647;-74
2022/12/22 17:06:27;;;;;;;14.90;4.40;;;;;;;;;;5049952;28;20124;-70
2022/12/22 17:09:24;;;;;;;15.00;4.80;;;;;;;;;;5047758;28;20035;-71
2022/12/22 17:12:14;;;;;;;10.70;3.65;;;;;;;;;;5055833;28;20036;-71
2022/12/22 17:15:00;;;;;;;10.85;3.30;;;;;;;;;;5047325;28;20032;-72
2022/12/22 17:17:45;;;;;;;11.13;3.92;;;;;;;;;;5049408;28;20503;-71
2022/12/22 17:20:31;;;;;;;11.75;4.10;;;;;;;;;;5043871;28;20044;-63
2022/12/22 17:23:35;;;;;;;10.13;4.65;;;;;;;;;;5051546;28;20108;-62
2022/12/22 17:26:22;;;;;;;14.75;3.83;;;;;;;;;;5051234;28;20056;-63
2022/12/22 17:29:28;;;;;;;10.48;3.38;;;;;;;;;;5054550;28;20029;-62
2022/12/22 17:32:14;;;;;;;14.20;3.85;;;;;;;;;;5046956;28;20048;-65
2022/12/22 17:34:59;;;;;;;12.48;4.43;;;;;;;;;;5062291;28;20223;-62
2022/12/22 17:37:45;;;;;;;10.43;2.72;;;;;;;;;;5055042;28;20127;-63
2022/12/22 17:40:30;;;;;;;12.98;4.13;;;;;;;;;;5053372;28;20120;-66
2022/12/22 17:43:17;;;;;;;12.55;2.85;;;;;;;;;;5055817;28;20405;-76
2022/12/22 17:46:04;;;;;;;10.60;2.80;;;;;;;;;;5046561;28;20032;-79
2022/12/22 17:48:49;;;;;;;15.55;3.78;;;;;;;;;;5052186;28;20074;-75
2022/12/22 17:51:35;;;;;;;13.02;4.28;;;;;;;;;;5049235;28;20040;-75
2022/12/22 17:54:24;;;;;;;20.98;3.47;;;;;;;;;;5055026;28;20085;-75
2022/12/22 17:57:13;;;;;;;11.35;3.40;;;;;;;;;;5056568;28;20141;-69
2022/12/22 17:59:59;;;;;;;10.93;4.22;;;;;;;;;;5052939;28;20150;-70
2022/12/22 18:02:44;;;;;;;12.10;3.47;;;;;;;;;;5057494;28;20052;-72
2022/12/22 18:05:37;;;;;;;13.88;3.88;;;;;;;;;;5056986;28;20032;-73
2022/12/22 18:08:23;;;;;;;14.68;4.20;;;;;;;;;;5073761;28;20032;-71
2022/12/22 18:11:09;;;;;;;16.00;4.80;;;;;;;;;;5053099;28;20028;-75
2022/12/22 18:13:57;;;;;;;16.13;3.90;;;;;;;;;;5050874;28;20060;-74
2022/12/22 18:16:42;;;;;;;18.75;3.78;;;;;;;;;;5055013;28;20032;-71
2022/12/22 18:19:27;;;;;;;13.20;3.05;;;;;;;;;;5041602;28;20033;-74
2022/12/22 18:22:20;;;;;;;14.85;4.20;;;;;;;;;;5053917;28;20502;-72
2022/12/22 18:25:17;;;;;;;15.45;3.33;;;;;;;;;;5049189;28;20504;-74
2022/12/22 18:28:02;;;;;;;12.18;4.80;;;;;;;;;;5057176;28;20028;-73
2022/12/22 18:30:47;;;;;;;24.48;5.78;;;;;;;;;;5054188;28;20113;-72
2022/12/22 18:33:32;;;;;;;16.15;4.47;;;;;;;;;;5061856;28;20036;-71
2022/12/22 18:36:24;;;;;;;13.38;4.88;;;;;;;;;;5053183;28;20037;-71
2022/12/22 18:39:14;;;;;;;17.35;4.68;;;;;;;;;;5057941;28;20320;-71
2022/12/22 18:41:59;;;;;;;;;;;;;;;;;;5047544;28;20458;-72
2022/12/22 18:44:44;;;;;;;9.38;3.28;;;;;;;;;;5058846;28;19916;-71
2022/12/22 18:47:29;;;;;;;9.63;2.95;;;;;;;;;;5058152;28;20025;-71
2022/12/22 18:50:16;;;;;;;13.18;3.25;;;;;;;;;;5051324;28;20576;-72
2022/12/22 18:53:05;;;;;;;14.85;4.03;;;;;;;;;;5053701;28;20039;-70
2022/12/22 18:55:50;;;;;;;12.85;5.03;;;;;;;;;;5052465;28;20036;-73
2022/12/22 18:58:35;;;;;;;14.63;4.28;;;;;;;;;;5065903;28;20121;-71
2022/12/22 19:01:22;;;;;;;16.77;4.85;;;;;;;;;;5053642;28;20564;-71
2022/12/22 19:04:09;;;;;;;15.23;4.18;;;;;;;;;;5047899;28;20028;-71
2022/12/22 19:06:54;;;;;;;15.38;3.85;;;;;;;;;;5053289;28;20039;-72
2022/12/22 19:09:41;;;;;;;16.88;4.35;;;;;;;;;;5056850;28;20036;-72
2022/12/22 19:12:26;;;;;;;14.45;3.65;;;;;;;;;;5057285;28;20463;-72
2022/12/22 19:15:18;;;;;;;13.35;3.72;;;;;;;;;;5052459;28;20032;-72
2022/12/22 19:18:04;;;;;;;11.43;4.10;;;;;;;;;;5043637;28;20072;-72
2022/12/22 19:20:49;;;;;;;12.80;3.70;;;;;;;;;;5052921;28;20029;-71
2022/12/22 19:23:35;;;;;;;13.13;3.60;;;;;;;;;;5053501;28;20032;-71
2022/12/22 19:26:21;;;;;;;15.43;4.85;;;;;;;;;;5042492;28;20039;-71
2022/12/22 19:29:10;;;;;;;18.17;4.50;;;;;;;;;;5055154;28;20031;-73
2022/12/22 19:31:55;;;;;;;17.73;5.40;;;;;;;;;;5049492;28;20032;-71
2022/12/22 19:34:40;;;;;;;9.93;4.00;;;;;;;;;;5053674;28;20044;-70
2022/12/22 19:37:25;;;;;;;12.07;4.10;;;;;;;;;;5056520;28;20062;-71
2022/12/22 19:40:11;;;;;;;14.50;4.30;;;;;;;;;;5053070;28;20036;-72
2022/12/22 19:42:57;;;;;;;18.70;4.90;;;;;;;;;;5069600;28;20093;-71
2022/12/22 19:45:44;;;;;;;16.00;4.97;;;;;;;;;;5053199;28;20055;-73
2022/12/22 19:48:29;;;;;;;14.20;5.03;;;;;;;;;;5052701;28;20059;-72
2022/12/22 19:51:14;;;;;;;14.95;3.65;;;;;;;;;;5053163;28;20392;-73
2022/12/22 19:54:00;;;;;;;13.70;4.55;;;;;;;;;;5053372;28;20060;-72
2022/12/22 19:56:46;;;;;;;12.85;4.78;;;;;;;;;;5052774;28;20518;-73
2022/12/22 19:59:45;;;;;;;13.32;5.30;;;;;;;;;;5042057;28;20479;-73
2022/12/22 20:02:31;;;;;;;10.82;3.88;;;;;;;;;;5044783;28;20036;-71
2022/12/22 20:05:22;;;;;;;14.00;4.93;;;;;;;;;;5057212;28;20063;-70
2022/12/22 20:08:08;;;;;;;10.88;4.50;;;;;;;;;;5056313;28;20120;-78
2022/12/22 20:10:53;;;;;;;12.82;4.35;;;;;;;;;;5035398;28;20024;-77
2022/12/22 20:13:39;;;;;;;12.00;3.67;;;;;;;;;;5056265;28;20053;-76
2022/12/22 20:16:24;;;;;;;11.93;3.30;;;;;;;;;;5055951;28;20074;-76
2022/12/22 20:19:13;;;;;;;16.48;4.22;;;;;;;;;;5054831;28;20085;-75
2022/12/22 20:21:58;;;;;;;12.98;4.63;;;;;;;;;;5052976;28;20078;-75
2022/12/22 20:24:45;;;;;;;14.60;4.93;;;;;;;;;;5058078;28;20066;-69
2022/12/22 20:27:31;;;;;;;15.38;4.40;;;;;;;;;;5051071;28;20487;-74